M I D A S
Marine Information and Data Acquisition System
Tripno 646 of the Zeeleeuw from 2004-02-11 07:52:58 to 2004-02-11 17:59:42
Back to CruiseResearch ActivitiesStationsMapUnderway DataData graphs

EquipmentUnitsComment
TimeDGPSUTC
LatitudeDGPSDM.mWGS84
LongitudeDGPSDM.mWGS84
TemperatureSBE03/SBE38deg celciusITS90
ConductivitySBE21S/mITS90
SalinitySBE21 Practical Salinity Units
ChlorophylAChelsea fluorimeterg/lCalibrated in Aceton
Missing or incorrect values are displayed as -999
Sea surface data collected by the RV Zeeleeuw from 2004-02-11 07:52:58 to 2004-02-11 17:59:42
Time Latitude Longitude Temperature Conductivity Salinity ChlorophylA
2004-02-11 07:54:01 51°13.631 2°55.966 13.333227 0.550417 3.827741 -0.882377
2004-02-11 07:55:01 51°13.675 2°55.846 13.331443 0.550522 3.828215 -0.882377
2004-02-11 07:55:59 51°13.686 2°55.819 13.285003 0.550522 3.827689 -0.882377
2004-02-11 07:57:01 51°13.683 2°55.763 13.62233 0.55 3.841998 -0.848668
2004-02-11 07:57:59 51°13.708 2°55.778 13.406588 0.549374 3.840966 -0.848668
2004-02-11 07:59:01 51°13.718 2°55.757 13.438431 0.548956 3.837242 -0.848668
2004-02-11 07:59:59 51°13.77 2°55.686 13.395273 0.548748 3.833034 -0.882377
2004-02-11 08:00:59 51°13.876 2°55.596 13.396476 0.548852 3.832375 -0.848668
2004-02-11 08:01:59 51°14 2°55.513 13.408103 0.548852 3.831392 -0.848668
2004-02-11 08:02:59 51°14.142 2°55.413 13.40396 0.548852 3.830711 -0.882377
2004-02-11 08:03:59 51°14.278 2°55.232 13.318553 0.548956 3.831263 -0.848668
2004-02-11 08:05:00 51°14.399 2°54.983 13.373126 0.548852 3.829654 -0.848668
2004-02-11 08:06:00 51°14.497 2°54.724 13.304189 0.549061 3.831663 -0.848668
2004-02-11 08:06:59 51°14.57 2°54.538 13.29192 0.548852 3.829578 -0.848668
2004-02-11 08:07:59 51°14.666 2°54.298 13.194127 0.548643 3.82674 -0.848668
2004-02-11 08:09:01 51°14.785 2°53.978 13.158457 0.549061 3.831814 -0.848668
2004-02-11 08:09:59 51°14.901 2°53.676 13.160648 0.548956 3.830356 -0.848668
2004-02-11 08:10:59 51°15.021 2°53.364 13.18425 0.548956 3.832623 -0.814958
2004-02-11 08:11:59 51°15.133 2°53.04 13.148531 0.549478 3.836817 -0.814958
2004-02-11 08:12:59 51°15.234 2°52.702 13.153852 0.548956 3.833153 -0.882377
2004-02-11 08:13:59 51°15.335 2°52.365 13.197836 0.548434 3.828506 -0.848668
2004-02-11 08:14:59 51°15.419 2°52.018 13.173791 0.548643 3.832104 -0.848668
2004-02-11 08:15:59 51°15.464 2°51.647 13.16713 0.548852 3.833055 -0.882377
2004-02-11 08:16:59 51°15.489 2°51.266 13.208693 0.548643 3.830289 -0.848668
2004-02-11 08:18:00 51°15.518 2°50.881 13.174953 0.549374 3.835888 -0.848668
2004-02-11 08:18:59 51°15.546 2°50.509 13.194261 0.549896 3.842888 -0.848668
2004-02-11 08:20:00 51°15.578 2°50.123 13.185189 0.550418 3.845416 -0.848668
2004-02-11 08:20:59 51°15.6 2°49.747 13.199846 0.550939 3.849386 -0.848668
2004-02-11 08:21:59 51°15.619 2°49.367 13.240898 0.551148 3.854368 -0.882377
2004-02-11 08:22:59 51°15.64 2°48.989 13.221291 0.55167 3.858419 -0.848668
2004-02-11 08:23:59 51°15.662 2°48.611 13.231564 0.551879 3.861886 -0.882377
2004-02-11 08:24:59 51°15.686 2°48.229 13.206638 0.552401 3.87084 -0.814958
2004-02-11 08:25:59 51°15.707 2°47.844 13.231117 0.552401 3.867087 -0.848668
2004-02-11 08:26:59 51°15.73 2°47.458 13.221023 0.552505 3.869628 -0.848668
2004-02-11 08:27:59 51°15.75 2°47.073 13.261079 0.55261 3.872019 -0.848668
2004-02-11 08:28:59 51°15.76 2°46.691 13.256525 0.552923 3.874746 -0.882377
2004-02-11 08:30:00 51°15.773 2°46.301 13.272863 0.55334 3.8801 -0.882377
2004-02-11 08:31:00 51°15.785 2°45.916 13.265186 0.553653 3.887455 -0.848668
2004-02-11 08:31:59 51°15.797 2°45.539 13.279067 0.553862 3.890488 -0.882377
2004-02-11 08:33:00 51°15.82 2°45.151 13.281477 0.553967 3.892199 -0.882377
2004-02-11 08:33:59 51°15.848 2°44.781 13.28594 0.554071 3.891513 -0.882377
2004-02-11 08:34:59 51°15.897 2°44.409 13.276657 0.553654 3.889231 -0.848668
2004-02-11 08:35:59 51°15.994 2°44.077 13.28951 0.553758 3.893417 -0.848668
2004-02-11 08:36:59 51°16.175 2°43.859 13.306955 0.554593 3.902948 -0.882377
2004-02-11 08:38:00 51°16.368 2°43.652 7.968015 1.338143 9.957485 6.837076
2004-02-11 08:39:00 51°16.557 2°43.454 7.351194 3.601541 32.924255 4.780802
2004-02-11 08:39:59 51°16.748 2°43.277 7.214471 3.502212 34.161069 2.218888
2004-02-11 08:41:00 51°16.949 2°43.104 7.133914 3.485673 34.124758 2.252597
2004-02-11 08:41:59 51°17.145 2°42.945 7.154259 3.474295 34.027637 1.915503
2004-02-11 08:42:59 51°17.347 2°42.778 7.195615 3.476929 34.028809 2.117759
2004-02-11 08:43:59 51°17.56 2°42.619 7.219368 3.48799 34.131608 2.252597
2004-02-11 08:45:00 51°17.769 2°42.48 7.196888 3.487885 34.137139 2.387435
2004-02-11 08:45:59 51°17.973 2°42.344 7.197525 3.484198 34.112884 2.286306
2004-02-11 08:46:59 51°18.178 2°42.193 7.204823 3.482512 34.095379 2.454853
2004-02-11 08:47:59 51°18.379 2°42.04 7.193019 3.486621 34.140085 2.320016
2004-02-11 08:48:59 51°18.582 2°41.913 7.158719 3.490941 34.213045 2.387435
2004-02-11 08:49:59 51°18.793 2°41.796 7.169648 3.489887 34.216652 2.488563
2004-02-11 08:50:59 51°19.002 2°41.681 7.197182 3.491257 34.212299 2.522272
2004-02-11 08:52:00 51°19.212 2°41.592 7.23244 3.497683 34.243736 2.353725
2004-02-11 08:52:59 51°19.421 2°41.502 7.244531 3.503583 34.29369 2.488563
2004-02-11 08:53:59 51°19.635 2°41.439 7.262785 3.491467 34.15272 2.589691
2004-02-11 08:54:59 51°19.85 2°41.395 7.295268 3.500632 34.226459 2.421144
2004-02-11 08:56:00 51°20.07 2°41.397 7.356813 3.506426 34.249302 2.185178
2004-02-11 08:57:00 51°20.286 2°41.431 7.398429 3.516224 34.298838 2.185178
2004-02-11 08:57:59 51°20.441 2°41.506 7.403897 3.531185 34.438497 2.151469
2004-02-11 08:58:59 51°20.436 2°41.585 7.377673 3.519806 34.333508 2.252597
2004-02-11 08:59:59 51°20.43 2°41.584 7.376306 3.519806 34.342703 2.252597
2004-02-11 09:00:59 51°20.426 2°41.578 7.379627 3.515276 34.292729 2.252597
2004-02-11 09:01:59 51°20.423 2°41.569 7.383827 3.529605 34.444821 2.185178
2004-02-11 09:02:59 51°20.423 2°41.56 7.389248 3.512747 34.261972 1.982922
2004-02-11 09:03:59 51°20.427 2°41.547 7.376745 3.518226 34.318041 1.982922
2004-02-11 09:05:00 51°20.438 2°41.528 7.361943 3.524337 34.402741 2.08405
2004-02-11 09:06:00 51°20.459 2°41.505 7.357106 3.521492 34.381917 1.915503
2004-02-11 09:06:59 51°20.475 2°41.483 7.35867 3.517278 34.338684 1.881794
2004-02-11 09:08:01 51°20.499 2°41.51 7.352367 3.519174 34.35341 1.915503
2004-02-11 09:09:00 51°20.443 2°41.578 7.348311 3.522967 34.408827 2.117759
2004-02-11 09:10:00 51°20.312 2°41.459 7.349582 3.522757 34.403185 1.949212
2004-02-11 09:10:59 51°20.167 2°41.291 7.346601 3.509271 34.268491 2.185178
2004-02-11 09:11:59 51°20.053 2°41.242 7.338537 3.513801 34.304294 2.117759
2004-02-11 09:12:59 51°20.048 2°41.335 7.319228 3.50748 34.262413 2.050341
2004-02-11 09:14:00 51°20.106 2°41.31 7.31253 3.514012 34.34927 2.151469
2004-02-11 09:15:01 51°20.094 2°41.283 7.318104 3.515698 34.359205 2.185178
2004-02-11 09:16:00 51°20.102 2°41.234 7.318446 3.508112 34.274292 2.252597
2004-02-11 09:17:00 51°20.107 2°41.196 7.32006 3.472081 33.885778 2.218888
2004-02-11 09:17:59 51°20.109 2°41.172 7.320011 3.499052 34.172576 2.151469
2004-02-11 09:19:00 51°20.123 2°41.182 7.337462 3.506743 34.261925 2.151469
2004-02-11 09:20:00 51°20.097 2°41.301 7.302995 3.513801 34.314328 2.218888
2004-02-11 09:21:00 51°20.092 2°41.377 7.290475 3.51317 34.351007 2.252597
2004-02-11 09:21:59 51°20.095 2°41.391 7.304805 3.510114 34.317797 2.353725
2004-02-11 09:22:59 51°20.093 2°41.388 7.290964 3.503793 34.253284 2.421144
2004-02-11 09:23:59 51°20.088 2°41.376 7.290133 3.512854 34.357635 2.421144
2004-02-11 09:25:01 51°20.081 2°41.357 7.286905 3.505163 34.276535 2.286306
2004-02-11 09:25:59 51°20.069 2°41.334 7.301381 3.505689 34.275566 2.151469
2004-02-11 09:26:59 51°20.059 2°41.316 7.289497 3.473241 33.923994 2.185178
2004-02-11 09:27:59 51°20.055 2°41.303 7.298007 3.512327 34.345198 2.185178
2004-02-11 09:29:00 51°20.054 2°41.291 7.276191 3.503056 34.250286 2.387435
2004-02-11 09:30:00 51°20.059 2°41.281 7.259556 3.509693 34.346752 2.421144
2004-02-11 09:30:59 51°20.098 2°41.202 7.249474 3.507797 34.341226 2.488563
2004-02-11 09:32:00 51°20.025 2°41.07 7.265819 3.508324 34.34528 2.522272
2004-02-11 09:33:00 51°19.849 2°40.946 7.286611 3.512538 34.363427 2.353725
2004-02-11 09:33:59 51°19.721 2°40.884 7.273892 3.5118 34.361281 2.387435
2004-02-11 09:34:59 51°19.691 2°40.95 7.254173 3.511379 34.370131 2.65711
2004-02-11 09:35:59 51°19.693 2°40.967 7.245461 3.509483 34.360412 2.488563
2004-02-11 09:37:00 51°19.695 2°40.968 7.240273 3.509588 34.362399 2.454853
2004-02-11 09:37:59 51°19.692 2°40.961 7.241594 3.508745 34.358265 2.522272
2004-02-11 09:39:00 51°19.689 2°40.957 7.248691 3.508429 34.356505 2.488563
2004-02-11 09:39:59 51°19.688 2°40.955 7.233811 3.508113 34.355584 2.421144
2004-02-11 09:40:59 51°19.69 2°40.953 7.238804 3.508113 34.353904 2.320016
2004-02-11 09:41:59 51°19.691 2°40.949 7.238559 3.507797 34.352143 2.555982
2004-02-11 09:42:59 51°19.69 2°40.947 7.240468 3.508218 34.352531 2.488563
2004-02-11 09:44:00 51°19.687 2°40.942 7.237091 3.507797 34.352143 2.454853
2004-02-11 09:44:59 51°19.686 2°40.938 7.241594 3.506427 34.339753 2.488563
2004-02-11 09:45:59 51°19.684 2°40.938 7.242377 3.506954 34.339609 2.522272
2004-02-11 09:47:00 51°19.666 2°40.981 7.243503 3.506638 34.337008 2.488563
2004-02-11 09:48:00 51°19.547 2°40.908 7.236112 3.506533 34.330824 2.522272
2004-02-11 09:48:59 51°19.386 2°40.704 7.235328 3.504952 34.316142 2.522272
2004-02-11 09:49:59 51°19.26 2°40.641 7.237384 3.507797 34.353824 2.758238
2004-02-11 09:50:59 51°19.249 2°40.721 7.231804 3.508113 34.362307 2.6234
2004-02-11 09:51:59 51°19.313 2°40.734 7.239734 3.508219 34.362614 2.555982
2004-02-11 09:53:00 51°19.331 2°40.729 7.234839 3.508851 34.361933 2.488563
2004-02-11 09:54:00 51°19.322 2°40.711 7.232538 3.507797 34.363068 2.555982
2004-02-11 09:55:00 51°19.317 2°40.705 7.229062 3.507481 34.360466 2.555982
2004-02-11 09:55:59 51°19.32 2°40.704 7.226467 3.507165 34.356184 2.65711
2004-02-11 09:57:00 51°19.324 2°40.696 7.229356 3.505796 34.345471 2.994204
2004-02-11 09:57:59 51°19.321 2°40.682 7.228083 3.506744 34.357478 3.061623
2004-02-11 09:58:59 51°19.312 2°40.665 7.225047 3.507903 34.366737 2.6234
2004-02-11 10:00:00 51°19.298 2°40.64 7.227104 3.507165 34.360387 2.589691
2004-02-11 10:00:59 51°19.285 2°40.616 7.23993 3.50727 34.358172 2.522272
2004-02-11 10:02:00 51°19.272 2°40.592 7.2598 3.509061 34.355825 2.522272
2004-02-11 10:03:00 51°19.259 2°40.571 7.256522 3.510536 34.362639 2.488563
2004-02-11 10:03:59 51°19.294 2°40.538 7.235769 3.509693 34.366907 2.488563
2004-02-11 10:04:59 51°19.269 2°40.392 7.229062 3.507692 34.36108 2.6234
2004-02-11 10:06:00 51°19.173 2°40.374 7.237874 3.508535 34.363534 2.555982
2004-02-11 10:07:00 51°19.136 2°40.39 7.244482 3.508851 34.360252 2.926785
2004-02-11 10:07:59 51°19.118 2°40.39 7.229503 3.507903 34.359172 2.522272
2004-02-11 10:09:00 51°19.11 2°40.41 7.22681 3.508008 34.368726 2.555982
2004-02-11 10:10:00 51°19.114 2°40.438 7.221473 3.507481 34.365511 2.522272
2004-02-11 10:11:00 51°19.163 2°40.43 7.21643 3.505796 34.353876 2.555982
2004-02-11 10:12:01 51°19.18 2°40.416 7.219857 3.504742 34.339878 2.6234
2004-02-11 10:13:01 51°19.179 2°40.404 7.221277 3.502846 34.314186 2.353725
2004-02-11 10:13:59 51°19.179 2°40.402 7.219857 3.505269 34.346457 2.522272
2004-02-11 10:14:59 51°19.178 2°40.406 7.222942 3.505058 34.336599 2.555982
2004-02-11 10:16:01 51°19.173 2°40.401 7.213491 3.502003 34.307527 2.6234
2004-02-11 10:17:00 51°19.168 2°40.392 7.207419 3.49368 34.227797 2.353725
2004-02-11 10:17:59 51°19.138 2°40.446 7.200758 3.48936 34.186624 2.387435
2004-02-11 10:19:00 51°18.985 2°40.499 7.191647 3.481354 34.118667 2.252597
2004-02-11 10:19:59 51°18.808 2°40.56 7.18763 3.48462 34.150892 2.252597
2004-02-11 10:21:00 51°18.665 2°40.594 7.172931 3.489993 34.20523 2.387435
2004-02-11 10:22:00 51°18.648 2°40.663 7.176312 3.487886 34.194003 2.387435
2004-02-11 10:23:01 51°18.64 2°40.655 7.168423 3.482513 34.144671 2.353725
2004-02-11 10:24:00 51°18.638 2°40.655 7.165042 3.482091 34.143426 2.320016
2004-02-11 10:25:00 51°18.637 2°40.659 7.166169 3.478826 34.113693 2.320016
2004-02-11 10:26:00 51°18.639 2°40.663 7.168276 3.479352 34.115252 2.151469
2004-02-11 10:27:01 51°18.643 2°40.668 7.167247 3.4803 34.123075 2.353725
2004-02-11 10:28:00 51°18.644 2°40.665 7.164796 3.476719 34.089063 2.387435
2004-02-11 10:29:00 51°18.642 2°40.659 7.160092 3.476403 34.085619 2.252597
2004-02-11 10:30:00 51°18.641 2°40.65 7.152543 3.473874 34.063918 2.117759
2004-02-11 10:31:00 51°18.636 2°40.642 7.156759 3.474822 34.074249 2.185178
2004-02-11 10:32:00 51°18.628 2°40.632 7.153818 3.474296 34.073521 2.252597
2004-02-11 10:33:00 51°18.616 2°40.62 7.152249 3.473031 34.05891 2.117759
2004-02-11 10:34:00 51°18.603 2°40.6 7.150093 3.473031 34.064756 2.252597
2004-02-11 10:35:01 51°18.598 2°40.589 7.14671 3.473031 34.06058 2.286306
2004-02-11 10:36:00 51°18.606 2°40.588 7.150093 3.473874 34.068929 2.320016
2004-02-11 10:37:01 51°18.635 2°40.582 7.154651 3.475138 34.085213 2.286306
2004-02-11 10:38:00 51°18.654 2°40.566 7.164061 3.474401 34.068822 2.488563
2004-02-11 10:38:59 51°18.666 2°40.561 7.161905 3.475665 34.083433 2.252597
2004-02-11 10:39:59 51°18.669 2°40.589 7.154504 3.475349 34.077483 2.185178
2004-02-11 10:41:00 51°18.659 2°40.596 7.158033 3.475981 34.087712 2.387435
2004-02-11 10:42:00 51°18.647 2°40.589 7.15818 3.476297 34.086978 2.353725
2004-02-11 10:42:59 51°18.636 2°40.583 7.149308 3.474822 34.070908 2.421144
2004-02-11 10:43:59 51°18.636 2°40.631 7.157102 3.473769 34.067781 2.454853
2004-02-11 10:45:00 51°18.548 2°40.624 7.169207 3.473769 34.05943 2.488563
2004-02-11 10:46:00 51°18.504 2°40.391 7.15671 3.475665 34.06673 2.6234
2004-02-11 10:46:59 51°18.45 2°40.084 7.162101 3.476824 34.097733 2.522272
2004-02-11 10:48:00 51°18.405 2°39.935 7.164993 3.479668 34.122041 2.454853
2004-02-11 10:49:00 51°18.442 2°39.857 7.184543 3.48304 34.147063 2.488563
2004-02-11 10:50:00 51°18.449 2°39.939 7.167737 3.483566 34.156987 2.555982
2004-02-11 10:51:00 51°18.41 2°40.025 7.166904 3.483988 34.163253 2.387435
2004-02-11 10:52:00 51°18.397 2°40.038 7.172931 3.482513 34.145507 2.387435
2004-02-11 10:53:00 51°18.39 2°40.036 7.161807 3.480827 34.133833 2.320016
2004-02-11 10:54:00 51°18.391 2°40.035 7.160974 3.479985 34.127995 2.421144
2004-02-11 10:55:01 51°18.445 2°39.94 7.158915 3.479563 34.125912 2.488563
2004-02-11 10:56:01 51°18.363 2°39.794 7.175381 3.479879 34.119319 2.421144
2004-02-11 10:57:01 51°18.283 2°39.878 7.177341 3.481249 34.125879 2.454853
2004-02-11 10:58:00 51°18.268 2°39.9 7.173127 3.483355 34.139632 2.353725
2004-02-11 10:58:59 51°18.255 2°39.89 7.166953 3.482197 34.139554 2.454853
2004-02-11 10:59:59 51°18.24 2°39.877 7.16955 3.481249 34.135915 2.454853
2004-02-11 11:00:59 51°18.228 2°39.87 7.183417 3.482091 34.130879 2.286306
2004-02-11 11:02:00 51°18.236 2°39.886 7.174009 3.482934 34.134206 2.387435
2004-02-11 11:03:00 51°18.246 2°39.889 7.173764 3.482197 34.1429 2.421144
2004-02-11 11:04:00 51°18.255 2°39.882 7.163571 3.482724 34.153662 2.522272
2004-02-11 11:04:59 51°18.259 2°39.869 7.162052 3.480722 34.131012 2.454853
2004-02-11 11:05:59 51°18.26 2°39.851 7.159013 3.480617 34.134884 2.522272
2004-02-11 11:07:00 51°18.26 2°39.83 7.157053 3.48009 34.12998 2.421144
2004-02-11 11:08:01 51°18.258 2°39.811 7.155778 3.478931 34.11735 2.421144
2004-02-11 11:08:59 51°18.26 2°39.805 7.160582 3.479247 34.119958 2.454853
2004-02-11 11:09:59 51°18.269 2°39.808 7.160288 3.479774 34.12068 2.353725
2004-02-11 11:11:00 51°18.278 2°39.816 7.159798 3.479036 34.110972 2.488563
2004-02-11 11:12:01 51°18.286 2°39.826 7.167737 3.478931 34.111497 2.454853
2004-02-11 11:12:59 51°18.296 2°39.839 7.165679 3.47851 34.106905 2.488563
2004-02-11 11:14:01 51°18.306 2°39.862 7.171265 3.478088 34.096464 2.488563
2004-02-11 11:15:01 51°18.318 2°39.889 7.166659 3.477983 34.098659 2.353725
2004-02-11 11:16:01 51°18.32 2°39.905 7.162885 3.476613 34.081232 2.488563
2004-02-11 11:16:59 51°18.316 2°39.905 7.161415 3.47577 34.077897 2.421144
2004-02-11 11:18:01 51°18.307 2°39.896 7.161464 3.476086 34.082176 2.488563
2004-02-11 11:19:00 51°18.292 2°39.883 7.160288 3.475454 34.074454 2.522272
2004-02-11 11:20:00 51°18.281 2°39.879 7.165924 3.476297 34.078625 2.320016
2004-02-11 11:21:00 51°18.276 2°39.888 7.163326 3.474928 34.065376 2.454853
2004-02-11 11:21:59 51°18.278 2°39.903 7.16019 3.47556 34.078108 2.454853
2004-02-11 11:23:01 51°18.285 2°39.915 7.15867 3.474506 34.06663 2.6234
2004-02-11 11:24:00 51°18.293 2°39.933 7.16955 3.474506 34.06496 2.488563
2004-02-11 11:25:00 51°18.298 2°39.943 7.168619 3.473979 34.054213 2.421144
2004-02-11 11:26:01 51°18.303 2°39.947 7.161464 3.473242 34.050353 2.522272
2004-02-11 11:27:01 51°18.301 2°39.955 7.155926 3.472189 34.043049 2.488563
2004-02-11 11:27:59 51°18.303 2°39.961 7.159307 3.471978 34.039084 2.421144
2004-02-11 11:28:59 51°18.306 2°39.951 7.158082 3.472189 34.042214 2.522272
2004-02-11 11:29:59 51°18.308 2°39.942 7.156857 3.471346 34.03637 2.555982
2004-02-11 11:30:59 51°18.312 2°39.933 7.159552 3.471451 34.035849 2.589691
2004-02-11 11:32:01 51°18.318 2°39.913 7.153034 3.470608 34.026668 2.589691
2004-02-11 11:32:59 51°18.323 2°39.898 7.154945 3.470398 34.024372 2.522272
2004-02-11 11:33:59 51°18.323 2°39.902 7.160239 3.470292 34.022391 2.522272
2004-02-11 11:34:59 51°18.323 2°39.911 7.164698 3.470819 34.023959 2.387435
2004-02-11 11:36:01 51°18.327 2°39.915 7.157151 3.467764 33.996517 2.555982
2004-02-11 11:37:01 51°18.331 2°39.914 7.159503 3.470924 34.027608 2.522272
2004-02-11 11:37:59 51°18.332 2°39.91 7.154063 3.470082 34.020096 2.589691
2004-02-11 11:38:59 51°18.331 2°39.903 7.162346 3.470082 34.02093 2.522272
2004-02-11 11:40:00 51°18.33 2°39.893 7.157788 3.470292 34.022391 2.454853
2004-02-11 11:41:00 51°18.323 2°39.883 7.15671 3.469239 34.008414 2.555982
2004-02-11 11:42:00 51°18.314 2°39.872 7.15867 3.469344 34.014564 2.555982
2004-02-11 11:43:01 51°18.308 2°39.863 7.157298 3.469133 34.008934 2.454853
2004-02-11 11:43:59 51°18.304 2°39.854 7.154945 3.469028 34.011121 2.454853
2004-02-11 11:45:00 51°18.301 2°39.847 7.160778 3.468923 34.009973 2.65711
2004-02-11 11:46:01 51°18.303 2°39.843 7.160974 3.468501 34.004549 2.65711
2004-02-11 11:47:00 51°18.307 2°39.847 7.160827 3.468501 34.000382 2.488563
2004-02-11 11:47:59 51°18.278 2°39.916 7.159994 3.46829 33.994754 2.893076
2004-02-11 11:48:59 51°18.185 2°39.846 7.160288 3.466078 33.973993 2.555982
2004-02-11 11:50:01 51°18.191 2°39.687 7.155926 3.465025 33.96252 2.454853
2004-02-11 11:51:00 51°18.238 2°39.69 7.160778 3.466078 33.973993 2.522272
2004-02-11 11:51:59 51°18.225 2°39.735 7.156955 3.467658 33.995369 2.555982
2004-02-11 11:53:01 51°18.189 2°39.787 7.1597 3.467237 33.987446 2.522272
2004-02-11 11:54:01 51°18.177 2°39.814 7.160141 3.465867 33.973364 2.488563
2004-02-11 11:55:01 51°18.166 2°39.813 7.160043 3.465657 33.971069 2.522272
2004-02-11 11:56:00 51°18.152 2°39.802 7.158915 3.464709 33.964073 2.6234
2004-02-11 11:57:01 51°18.143 2°39.819 7.157396 3.464919 33.96387 2.555982
2004-02-11 11:57:59 51°18.052 2°39.851 7.169844 3.465235 33.956492 2.555982
2004-02-11 11:58:59 51°18.009 2°39.642 7.150975 3.461759 33.904523 2.522272
2004-02-11 11:59:59 51°18.061 2°39.581 7.140484 3.460705 33.911333 2.724529
2004-02-11 12:01:01 51°18.059 2°39.575 7.162444 3.463234 33.95134 2.724529
2004-02-11 12:02:00 51°18.049 2°39.574 7.164846 3.465762 33.946423 2.488563
2004-02-11 12:02:59 51°18.035 2°39.572 7.163424 3.464603 33.948778 2.690819
2004-02-11 12:04:01 51°18.084 2°39.561 7.164061 3.464182 33.950014 2.791947
2004-02-11 12:04:59 51°18.06 2°39.418 7.173078 3.465657 33.960248 2.690819
2004-02-11 12:05:59 51°17.978 2°39.448 7.174205 3.466394 33.963283 3.162751
2004-02-11 12:06:59 51°17.962 2°39.534 7.177488 3.465446 33.948804 2.724529
2004-02-11 12:08:00 51°17.951 2°39.539 7.163669 3.463655 33.94012 2.690819
2004-02-11 12:08:59 51°17.939 2°39.534 7.166414 3.462286 33.926042 2.724529
2004-02-11 12:10:01 51°17.927 2°39.53 7.159503 3.46218 33.925726 2.960494
2004-02-11 12:10:59 51°17.916 2°39.528 7.16019 3.461864 33.92478 2.893076
2004-02-11 12:12:01 51°17.918 2°39.62 7.1597 3.461759 33.918645 2.65711
2004-02-11 12:13:00 51°17.906 2°39.663 7.153083 3.45923 33.8986 2.724529
2004-02-11 12:14:00 51°17.895 2°39.659 7.148181 3.456913 33.879182 2.893076
2004-02-11 12:15:00 51°17.889 2°39.661 7.149014 3.456175 33.871154 2.758238
2004-02-11 12:16:00 51°17.884 2°39.731 7.146563 3.457861 33.888674 2.758238
2004-02-11 12:17:00 51°17.863 2°39.744 7.148328 3.457545 33.889387 2.724529
2004-02-11 12:18:01 51°17.842 2°39.74 7.142543 3.455543 33.868423 2.960494
2004-02-11 12:19:01 51°17.82 2°39.74 7.140729 3.454911 33.866523 2.65711
2004-02-11 12:20:01 51°17.813 2°39.81 7.15171 3.454701 33.855927 3.533554
2004-02-11 12:20:59 51°17.814 2°39.863 7.135581 3.453436 33.850463 2.555982
2004-02-11 12:22:01 51°17.804 2°39.869 7.128373 3.452699 33.846583 2.65711
2004-02-11 12:22:59 51°17.794 2°39.866 7.129256 3.452804 33.850221 2.994204
2004-02-11 12:24:01 51°17.786 2°39.935 7.12803 3.452278 33.844484 2.791947
2004-02-11 12:25:00 51°17.765 2°39.966 7.127736 3.451962 33.845193 2.960494
2004-02-11 12:26:01 51°17.742 2°39.967 7.125824 3.452067 33.84468 2.960494
2004-02-11 12:26:59 51°17.73 2°39.986 7.123372 3.45133 33.843289 2.859366
2004-02-11 12:28:01 51°17.713 2°40.067 7.122146 3.450276 33.831815 2.791947
2004-02-11 12:29:00 51°17.69 2°40.078 7.118566 3.449644 33.83074 2.926785
2004-02-11 12:29:59 51°17.673 2°40.071 7.115182 3.448591 33.821753 2.859366
2004-02-11 12:31:01 51°17.65 2°40.022 7.12038 3.448591 33.819264 2.994204
2004-02-11 12:31:59 51°17.631 2°39.952 7.115721 3.44975 33.832717 3.365007
2004-02-11 12:33:00 51°17.64 2°40.004 7.130286 3.449644 33.82659 3.027913
2004-02-11 12:34:01 51°17.652 2°40.01 7.118566 3.44996 33.829202 3.19646
2004-02-11 12:35:00 51°17.65 2°39.997 7.116653 3.448591 33.818434 2.893076
2004-02-11 12:36:00 51°17.636 2°39.98 7.1472 3.448591 33.818434 3.19646
2004-02-11 12:36:59 51°17.639 2°39.961 7.120429 3.449539 33.806367 2.926785
2004-02-11 12:37:59 51°17.695 2°39.895 7.116702 3.447853 33.807913 2.994204
2004-02-11 12:38:59 51°17.769 2°39.815 7.127785 3.44838 33.814479 3.19646
2004-02-11 12:40:01 51°17.762 2°39.766 7.12092 3.44838 33.810332 2.791947
2004-02-11 12:40:59 51°17.74 2°39.742 7.115966 3.447853 33.806254 3.162751
2004-02-11 12:42:01 51°17.717 2°39.715 7.118124 3.448696 33.817092 3.365007
2004-02-11 12:43:01 51°17.738 2°39.619 7.121655 3.44838 33.809502 3.095332
2004-02-11 12:44:00 51°17.81 2°39.563 7.127785 3.449012 33.810581 2.994204
2004-02-11 12:44:59 51°17.834 2°39.529 7.131463 3.449117 33.811728 2.994204
2004-02-11 12:45:59 51°17.836 2°39.515 7.131365 3.448485 33.805674 2.994204
2004-02-11 12:47:00 51°17.836 2°39.516 7.14068 3.447958 33.794136 3.129042
2004-02-11 12:48:01 51°17.862 2°39.495 7.132149 3.447432 33.790059 3.129042
2004-02-11 12:49:01 51°17.881 2°39.437 7.131708 3.448275 33.79592 3.027913
2004-02-11 12:50:01 51°17.879 2°39.395 7.134012 3.448064 33.793626 2.926785
2004-02-11 12:51:01 51°17.869 2°39.361 7.133375 3.447958 33.793308 3.162751
2004-02-11 12:52:01 51°17.854 2°39.332 7.138572 3.448169 33.795602 3.095332
2004-02-11 12:53:01 51°17.835 2°39.305 7.136709 3.449328 33.804902 3.19646
2004-02-11 12:54:00 51°17.811 2°39.248 7.142886 3.449012 33.80229 3.129042
2004-02-11 12:55:01 51°17.728 2°39.233 7.136611 3.449117 33.805924 3.331298
2004-02-11 12:56:01 51°17.736 2°39.329 7.131463 3.449433 33.811023 3.027913
2004-02-11 12:57:01 51°17.785 2°39.33 7.136758 3.448696 33.798021 3.263879
2004-02-11 12:58:01 51°17.821 2°39.378 7.133228 3.448485 33.799871 3.027913
2004-02-11 12:59:01 51°17.815 2°39.392 7.133424 3.447221 33.786937 3.263879
2004-02-11 12:59:59 51°17.805 2°39.399 7.13313 3.447116 33.784133 3.162751
2004-02-11 13:01:00 51°17.795 2°39.405 7.139209 3.4468 33.780692 3.263879
2004-02-11 13:02:01 51°17.796 2°39.482 7.139013 3.447116 33.78082 3.129042
2004-02-11 13:03:01 51°17.781 2°39.519 7.131316 3.446484 33.777252 3.398717
2004-02-11 13:04:01 51°17.77 2°39.537 7.129305 3.446273 33.775787 3.297589
2004-02-11 13:05:01 51°17.755 2°39.533 7.130286 3.446589 33.780884 3.263879
2004-02-11 13:06:01 51°17.746 2°39.572 7.134454 3.446484 33.77808 3.061623
2004-02-11 13:07:01 51°17.73 2°39.626 7.135238 3.445957 33.772346 2.758238
2004-02-11 13:08:01 51°17.712 2°39.621 7.131953 3.445009 33.762025 3.365007
2004-02-11 13:09:01 51°17.694 2°39.617 7.148034 3.445641 33.763938 3.061623
2004-02-11 13:10:01 51°17.686 2°39.662 7.134895 3.445009 33.763681 3.095332
2004-02-11 13:11:01 51°17.707 2°39.739 7.132002 3.444166 33.752852 3.297589
2004-02-11 13:12:00 51°17.696 2°39.746 7.122195 3.443429 33.750618 3.19646
2004-02-11 13:13:01 51°17.682 2°39.754 7.120086 3.442586 33.749721 3.499845
2004-02-11 13:14:01 51°17.669 2°39.767 7.126755 3.443218 33.753292 3.162751
2004-02-11 13:15:01 51°17.679 2°39.861 7.12038 3.442165 33.737684 3.297589
2004-02-11 13:16:00 51°17.661 2°39.868 7.118173 3.440795 33.730221 3.499845
2004-02-11 13:17:01 51°17.641 2°39.853 7.118124 3.440374 33.728116 3.331298
2004-02-11 13:18:01 51°17.62 2°39.848 7.120086 3.440163 33.725821 3.297589
2004-02-11 13:19:01 51°17.607 2°39.912 7.126755 3.441111 33.73118 3.870648
2004-02-11 13:20:01 51°17.595 2°39.929 7.116947 3.440374 33.719016 3.129042
2004-02-11 13:21:01 51°17.577 2°39.932 7.11474 3.439004 33.714031 3.331298
2004-02-11 13:22:00 51°17.562 2°39.938 7.128521 3.439426 33.721929 3.263879
2004-02-11 13:23:00 51°17.605 2°39.925 7.114004 3.438267 33.704349 3.162751
2004-02-11 13:24:01 51°17.61 2°39.725 7.121214 3.438899 33.706269 3.466136
2004-02-11 13:25:01 51°17.622 2°39.578 7.128275 3.441954 33.73539 3.432426
2004-02-11 13:26:00 51°17.618 2°39.557 7.127834 3.441532 33.727494 3.432426
2004-02-11 13:27:00 51°17.604 2°39.548 7.127197 3.443007 33.74272 3.263879
2004-02-11 13:28:01 51°17.619 2°39.517 7.135042 3.443218 33.749152 3.297589
2004-02-11 13:29:01 51°17.688 2°39.449 7.132247 3.443639 33.745463 3.19646
2004-02-11 13:30:01 51°17.714 2°39.432 7.134257 3.443745 33.74992 3.466136
2004-02-11 13:31:01 51°17.711 2°39.419 7.142053 3.44385 33.741965 3.129042
2004-02-11 13:32:01 51°17.701 2°39.408 7.135679 3.44385 33.741965 3.23017
2004-02-11 13:33:01 51°17.721 2°39.341 7.139945 3.444061 33.74674 3.297589
2004-02-11 13:33:59 51°17.742 2°39.325 7.134159 3.44385 33.745274 3.027913
2004-02-11 13:35:01 51°17.743 2°39.32 7.139749 3.444061 33.749222 3.23017
2004-02-11 13:36:00 51°17.737 2°39.32 7.136366 3.444166 33.747059 3.23017
2004-02-11 13:37:01 51°17.762 2°39.275 7.141072 3.44385 33.747756 3.297589
2004-02-11 13:38:00 51°17.711 2°39.181 7.154994 3.443428 33.734071 3.095332
2004-02-11 13:39:01 51°17.647 2°39.267 7.151416 3.445009 33.751266 2.960494
2004-02-11 13:40:01 51°17.636 2°39.308 7.144847 3.444587 33.745026 3.23017
2004-02-11 13:41:01 51°17.685 2°39.322 7.14117 3.444587 33.749163 3.095332
2004-02-11 13:42:01 51°17.694 2°39.248 7.14269 3.444587 33.747508 3.19646
2004-02-11 13:43:00 51°17.687 2°39.228 7.139847 3.444587 33.751645 3.095332
2004-02-11 13:44:01 51°17.679 2°39.216 7.144308 3.444798 33.75311 3.23017
2004-02-11 13:45:01 51°17.67 2°39.21 7.147642 3.44543 33.750888 2.994204
2004-02-11 13:46:01 51°17.674 2°39.186 7.146514 3.445114 33.749103 2.791947
2004-02-11 13:47:00 51°17.723 2°39.221 7.140925 3.444903 33.752602 3.23017
2004-02-11 13:48:01 51°17.683 2°39.334 7.1422 3.443955 33.746421 3.23017
2004-02-11 13:49:01 51°17.626 2°39.368 7.138621 3.444482 33.748843 3.129042
2004-02-11 13:50:01 51°17.627 2°39.387 7.137199 3.445219 33.757696 3.263879
2004-02-11 13:51:01 51°17.623 2°39.409 7.137199 3.444903 33.759223 3.331298
2004-02-11 13:52:00 51°17.608 2°39.428 7.140729 3.445535 33.763619 3.129042
2004-02-11 13:53:01 51°17.602 2°39.442 7.138474 3.446062 33.763558 3.23017
2004-02-11 13:53:59 51°17.595 2°39.456 7.134895 3.44543 33.764956 3.365007
2004-02-11 13:55:01 51°17.58 2°39.479 7.136856 3.445641 33.766422 3.23017
2004-02-11 13:55:59 51°17.544 2°39.538 7.153181 3.446273 33.761713 3.061623
2004-02-11 13:57:01 51°17.54 2°39.542 7.14019 3.446273 33.765851 3.23017
2004-02-11 13:58:01 51°17.532 2°39.556 7.136464 3.445851 33.766231 3.23017
2004-02-11 13:59:00 51°17.52 2°39.582 7.143965 3.445746 33.765085 3.162751
2004-02-11 14:00:01 51°17.509 2°39.647 7.142053 3.4468 33.771583 3.129042
2004-02-11 14:01:01 51°17.498 2°39.637 7.137395 3.446062 33.767697 3.162751
2004-02-11 14:02:01 51°17.489 2°39.64 7.138621 3.445641 33.766422 3.095332
2004-02-11 14:03:01 51°17.482 2°39.688 7.138866 3.446378 33.776933 3.095332
2004-02-11 14:04:01 51°17.544 2°39.725 7.138964 3.446484 33.775596 3.095332
2004-02-11 14:05:01 51°17.511 2°39.601 7.140876 3.445746 33.765085 3.331298
2004-02-11 14:06:01 51°17.482 2°39.445 7.144406 3.44543 33.756679 2.960494
2004-02-11 14:07:01 51°17.469 2°39.428 7.153573 3.448274 33.78101 2.926785
2004-02-11 14:08:01 51°17.453 2°39.42 7.147838 3.447958 33.780055 2.859366
2004-02-11 14:09:01 51°17.445 2°39.411 7.149995 3.448801 33.786742 2.555982
2004-02-11 14:10:01 51°17.471 2°39.382 7.151367 3.449117 33.791009 2.859366
2004-02-11 14:11:01 51°17.55 2°39.347 7.147396 3.449117 33.791009 2.791947
2004-02-11 14:12:01 51°17.58 2°39.313 7.144259 3.447221 33.771202 2.724529
2004-02-11 14:13:01 51°17.575 2°39.333 7.145387 3.448906 33.794514 2.926785
2004-02-11 14:14:01 51°17.57 2°39.355 7.143524 3.450065 33.807128 2.926785
2004-02-11 14:15:01 51°17.562 2°39.342 7.152985 3.44996 33.805981 2.994204
2004-02-11 14:16:01 51°17.575 2°39.226 7.149945 3.448274 33.783494 2.859366
2004-02-11 14:17:01 51°17.616 2°39.174 7.147396 3.447958 33.777571 2.690819
2004-02-11 14:18:00 51°17.622 2°39.185 7.14671 3.448274 33.781838 2.65711
2004-02-11 14:19:01 51°17.624 2°39.198 7.146122 3.450592 33.809546 2.926785
2004-02-11 14:20:01 51°17.624 2°39.198 7.14823 3.452699 33.831649 2.926785
2004-02-11 14:21:01 51°17.575 2°39.145 7.161415 3.448801 33.78343 2.690819
2004-02-11 14:22:01 51°17.56 2°39.163 7.149651 3.448801 33.785086 2.6234
2004-02-11 14:23:01 51°17.553 2°39.187 7.14671 3.449855 33.800691 2.994204
2004-02-11 14:24:01 51°17.544 2°39.213 7.16166 3.450908 33.794762 2.6234
2004-02-11 14:25:01 51°17.545 2°39.241 7.15073 3.450697 33.802407 2.589691
2004-02-11 14:26:01 51°17.565 2°39.268 7.150926 3.4547 33.848459 2.758238
2004-02-11 14:27:01 51°17.524 2°39.259 7.153034 3.45154 33.815721 2.690819
2004-02-11 14:28:01 51°17.518 2°39.18 7.152102 3.451856 33.814188 2.724529
2004-02-11 14:29:01 51°17.519 2°39.192 7.150779 3.452277 33.822089 2.690819
2004-02-11 14:30:01 51°17.519 2°39.209 7.1522 3.455017 33.853559 2.6234
2004-02-11 14:31:01 51°17.516 2°39.243 7.152445 3.455017 33.851899 2.555982
2004-02-11 14:32:01 51°17.515 2°39.312 7.150926 3.454279 33.843873 2.65711
2004-02-11 14:33:01 51°17.518 2°39.378 7.148328 3.448274 33.779354 2.859366
2004-02-11 14:34:01 51°17.481 2°39.378 7.15372 3.447642 33.773304 2.6234
2004-02-11 14:35:01 51°17.465 2°39.347 7.154651 3.440163 33.687804 2.758238
2004-02-11 14:36:01 51°17.462 2°39.355 7.156465 3.447326 33.764073 2.488563
2004-02-11 14:37:01 51°17.46 2°39.363 7.155631 3.44406 33.729374 2.522272
2004-02-11 14:38:01 51°17.443 2°39.351 7.156122 3.441743 33.694257 2.488563
2004-02-11 14:38:59 51°17.386 2°39.433 7.153475 3.44701 33.763117 2.791947
2004-02-11 14:40:01 51°17.452 2°39.562 7.151759 3.44838 33.781328 2.555982
2004-02-11 14:41:01 51°17.457 2°39.458 7.167786 3.443639 33.729749 2.454853
2004-02-11 14:42:01 51°17.395 2°39.359 7.154014 3.441427 33.697425 2.555982
2004-02-11 14:43:01 51°17.382 2°39.363 7.152985 3.439109 33.676347 2.387435
2004-02-11 14:44:01 51°17.37 2°39.371 7.156024 3.441637 33.704671 2.421144
2004-02-11 14:45:01 51°17.359 2°39.326 7.150877 3.437213 33.657375 2.353725
2004-02-11 14:46:01 51°17.399 2°39.229 7.15269 3.445219 33.74446 2.421144
2004-02-11 14:47:01 51°17.439 2°39.117 7.154504 3.445535 33.74459 2.488563
2004-02-11 14:48:01 51°17.447 2°39.132 7.157445 3.442586 33.711679 2.454853
2004-02-11 14:49:01 51°17.451 2°39.154 7.159798 3.448485 33.775852 2.387435
2004-02-11 14:50:01 51°17.456 2°39.148 7.159847 3.44543 33.741791 2.387435
2004-02-11 14:51:01 51°17.5 2°39.049 7.158376 3.444166 33.723909 2.454853
2004-02-11 14:52:01 51°17.518 2°39.053 7.159601 3.446905 33.755353 2.353725
2004-02-11 14:53:01 51°17.524 2°39.061 7.163473 3.462602 33.92782 2.353725
2004-02-11 14:54:01 51°17.52 2°39.06 7.163179 3.460495 33.899901 2.320016
2004-02-11 14:55:01 51°17.473 2°39.033 7.163767 3.462601 33.918678 2.320016
2004-02-11 14:56:01 51°17.409 2°38.933 7.155778 3.456175 33.857874 2.690819
2004-02-11 14:57:01 51°17.355 2°38.882 7.151073 3.456386 33.865976 2.421144
2004-02-11 14:58:01 51°17.351 2°38.887 7.15024 3.464814 33.960226 2.387435
2004-02-11 14:59:01 51°17.35 2°38.893 7.153377 3.463444 33.942816 2.421144
2004-02-11 15:00:01 51°17.345 2°38.901 7.152887 3.465762 33.966388 2.320016
2004-02-11 15:01:01 51°17.242 2°38.879 7.150485 3.464814 33.959393 2.387435
2004-02-11 15:02:01 51°17.033 2°38.846 7.167737 3.308705 32.264746 2.488563
2004-02-11 15:03:01 51°16.828 2°38.884 7.199484 3.45154 33.783431 2.555982
2004-02-11 15:04:01 51°16.724 2°38.893 7.189785 3.468817 33.955556 2.589691
2004-02-11 15:04:59 51°16.663 2°38.903 7.182633 3.480722 34.09675 2.690819
2004-02-11 15:06:01 51°16.635 2°38.88 7.182143 3.479457 34.0905 2.65711
2004-02-11 15:07:01 51°16.629 2°38.896 7.183466 3.480511 34.099465 2.690819
2004-02-11 15:07:59 51°16.627 2°38.915 7.1915 3.478825 34.076942 2.724529
2004-02-11 15:09:01 51°16.626 2°38.937 7.18763 3.48167 34.107071 2.589691
2004-02-11 15:10:01 51°16.621 2°38.917 7.189149 3.465551 33.924191 2.522272
2004-02-11 15:11:01 51°16.626 2°38.89 7.188463 3.460705 33.881443 2.6234
2004-02-11 15:12:01 51°16.626 2°38.903 7.186699 3.475454 34.041082 2.960494
2004-02-11 15:13:01 51°16.629 2°38.892 7.1915 3.475665 34.037542 2.825657
2004-02-11 15:14:01 51°16.626 2°38.871 7.195272 3.474611 34.021081 2.589691
2004-02-11 15:15:01 51°16.616 2°38.854 7.196937 3.490625 34.197879 2.724529
2004-02-11 15:16:01 51°16.61 2°38.849 7.198652 3.489782 34.185355 2.758238
2004-02-11 15:17:01 51°16.603 2°38.847 7.202521 3.478193 34.055887 2.724529
2004-02-11 15:18:01 51°16.597 2°38.847 7.206586 3.495576 34.238391 2.893076
2004-02-11 15:19:01 51°16.591 2°38.853 7.212708 3.48483 34.119762 2.859366
2004-02-11 15:20:01 51°16.589 2°38.864 7.2107 3.485673 34.123923 3.19646
2004-02-11 15:21:01 51°16.588 2°38.881 7.209329 3.499263 34.275183 2.960494
2004-02-11 15:22:01 51°16.588 2°38.903 7.212365 3.479457 34.059641 3.19646
2004-02-11 15:23:01 51°16.589 2°38.93 7.217311 3.500422 34.28193 2.825657
2004-02-11 15:24:01 51°16.588 2°38.95 7.218339 3.501581 34.29203 2.859366
2004-02-11 15:25:01 51°16.555 2°38.936 7.219661 3.500001 34.275666 2.994204
2004-02-11 15:26:01 51°16.518 2°39.053 7.218339 3.500422 34.278576 3.19646
2004-02-11 15:27:01 51°16.604 2°39.13 7.202031 3.493996 34.2237 2.926785
2004-02-11 15:28:01 51°16.63 2°38.978 7.225047 3.498421 34.26014 3.129042
2004-02-11 15:29:01 51°16.658 2°38.865 7.240028 3.502845 34.292372 3.129042
2004-02-11 15:30:01 51°16.661 2°38.852 7.256179 3.506006 34.310831 3.095332
2004-02-11 15:31:01 51°16.664 2°38.856 7.256228 3.504109 34.2835 2.859366
2004-02-11 15:32:01 51°16.666 2°38.871 7.26029 3.509377 34.335763 2.65711
2004-02-11 15:33:01 51°16.668 2°38.893 7.264743 3.507797 34.31606 3.027913
2004-02-11 15:34:01 51°16.669 2°38.919 7.262002 3.505268 34.288564 3.027913
2004-02-11 15:35:01 51°16.671 2°38.947 7.265428 3.507165 34.310024 3.061623
2004-02-11 15:36:01 51°16.673 2°38.975 7.267581 3.49705 34.195048 3.162751
2004-02-11 15:37:01 51°16.674 2°38.99 7.268461 3.511695 34.354261 2.926785
2004-02-11 15:38:01 51°16.611 2°39.002 7.266651 3.506322 34.30002 2.893076
2004-02-11 15:39:01 51°16.526 2°39.1 7.255837 3.509377 34.329054 3.095332
2004-02-11 15:40:01 51°16.463 2°38.928 7.261856 3.50137 34.255385 3.162751
2004-02-11 15:41:01 51°16.395 2°38.666 7.280203 3.504004 34.266448 3.263879
2004-02-11 15:42:01 51°16.338 2°38.416 7.295562 3.509166 34.303306 3.162751
2004-02-11 15:43:01 51°16.32 2°38.268 7.304022 3.512327 34.329276 2.960494
2004-02-11 15:44:01 51°16.28 2°38.188 7.310721 3.520544 34.40935 2.994204
2004-02-11 15:45:01 51°16.265 2°38.19 7.316295 3.508112 34.271784 2.926785
2004-02-11 15:46:01 51°16.247 2°38.198 7.311797 3.520228 34.400881 2.724529
2004-02-11 15:47:01 51°16.234 2°38.194 7.310428 3.51338 34.330673 2.6234
2004-02-11 15:48:01 51°16.232 2°38.186 7.307885 3.513169 34.331734 2.589691
2004-02-11 15:49:01 51°16.232 2°38.181 7.311699 3.521071 34.417593 2.6234
2004-02-11 15:50:01 51°16.228 2°38.173 7.308521 3.505794 34.251627 2.791947
2004-02-11 15:51:01 51°16.23 2°38.16 7.315024 3.521493 34.415457 2.65711
2004-02-11 15:52:01 51°16.236 2°38.148 7.311552 3.520544 34.405993 2.690819
2004-02-11 15:53:01 51°16.248 2°38.139 7.314046 3.519702 34.399352 2.6234
2004-02-11 15:54:01 51°16.259 2°38.132 7.316491 3.512326 34.314207 2.758238
2004-02-11 15:55:01 51°16.256 2°38.125 7.320011 3.520966 34.410572 2.825657
2004-02-11 15:56:01 51°16.254 2°38.115 7.317175 3.519491 34.387836 2.960494
2004-02-11 15:57:01 51°16.26 2°38.11 7.317957 3.518964 34.384629 2.893076
2004-02-11 15:58:01 51°16.267 2°38.116 7.318251 3.521703 34.416907 2.6234
2004-02-11 15:59:01 51°16.272 2°38.129 7.316148 3.510219 34.287978 2.522272
2004-02-11 16:00:01 51°16.279 2°38.147 7.318935 3.516119 34.353728 2.791947
2004-02-11 16:01:01 51°16.285 2°38.169 7.32006 3.515909 34.349764 2.522272
2004-02-11 16:02:01 51°16.289 2°38.187 7.321575 3.522862 34.421945 2.589691
2004-02-11 16:03:01 51°16.291 2°38.199 7.323335 3.52086 34.401037 2.6234
2004-02-11 16:04:01 51°16.294 2°38.204 7.321722 3.523178 34.427058 2.555982
2004-02-11 16:05:01 51°16.299 2°38.203 7.317908 3.514328 34.331762 2.690819
2004-02-11 16:06:01 51°16.308 2°38.199 7.317077 3.522757 34.424997 2.522272
2004-02-11 16:07:01 51°16.319 2°38.195 7.319375 3.513169 34.32085 2.65711
2004-02-11 16:08:01 51°16.332 2°38.191 7.322406 3.522441 34.419045 2.555982
2004-02-11 16:09:01 51°16.341 2°38.186 7.324948 3.524126 34.434001 2.522272
2004-02-11 16:10:01 51°16.337 2°38.178 7.324068 3.522967 34.420572 2.589691
2004-02-11 16:11:01 51°16.245 2°38.131 7.320353 3.52381 34.431407 2.926785
2004-02-11 16:12:01 51°16.059 2°38.023 7.298985 3.517384 34.369138 2.960494
2004-02-11 16:13:01 51°15.849 2°37.957 7.256375 3.515698 34.386048 3.19646
2004-02-11 16:14:00 51°15.678 2°37.811 7.219955 3.512327 34.389694 3.331298
2004-02-11 16:15:01 51°15.605 2°37.659 7.217703 3.509167 34.372098 3.23017
2004-02-11 16:16:01 51°15.557 2°37.538 7.218486 3.509799 34.380663 3.027913
2004-02-11 16:17:01 51°15.538 2°37.48 7.221767 3.506006 34.336844 3.027913
2004-02-11 16:18:01 51°15.535 2°37.468 7.226565 3.511379 34.394508 2.926785
2004-02-11 16:19:01 51°15.534 2°37.464 7.228377 3.510852 34.382885 2.893076
2004-02-11 16:20:01 51°15.537 2°37.466 7.231461 3.512117 34.397491 3.129042
2004-02-11 16:21:01 51°15.541 2°37.474 7.233566 3.512959 34.40078 2.690819
2004-02-11 16:22:01 51°15.547 2°37.487 7.238559 3.512117 34.390763 2.926785
2004-02-11 16:23:01 51°15.553 2°37.499 7.237678 3.513276 34.400857 2.859366
2004-02-11 16:24:01 51°15.561 2°37.505 7.238804 3.513697 34.406285 2.893076
2004-02-11 16:25:01 51°15.572 2°37.506 7.241888 3.514434 34.409267 2.994204
2004-02-11 16:26:01 51°15.585 2°37.507 7.242182 3.51475 34.411025 2.724529
2004-02-11 16:27:01 51°15.595 2°37.506 7.242182 3.51475 34.408502 2.724529
2004-02-11 16:28:01 51°15.6 2°37.504 7.244776 3.515067 34.413624 2.893076
2004-02-11 16:29:01 51°15.597 2°37.503 7.246244 3.514645 34.408196 3.263879
2004-02-11 16:30:01 51°15.593 2°37.499 7.249328 3.515909 34.419433 3.23017
2004-02-11 16:31:01 51°15.593 2°37.492 7.252558 3.516858 34.424706 2.690819
2004-02-11 16:32:01 51°15.598 2°37.487 7.262981 3.5177 34.428831 2.791947
2004-02-11 16:33:01 51°15.602 2°37.489 7.26714 3.518543 34.432114 3.19646
2004-02-11 16:34:01 51°15.605 2°37.494 7.27218 3.518332 34.426458 2.724529
2004-02-11 16:35:01 51°15.602 2°37.505 7.274675 3.519597 34.436007 3.027913
2004-02-11 16:36:01 51°15.594 2°37.515 7.271446 3.519597 34.435166 3.297589
2004-02-11 16:37:01 51°15.586 2°37.516 7.275066 3.520018 34.437227 2.6234
2004-02-11 16:38:01 51°15.583 2°37.511 7.276632 3.520334 34.441506 2.758238
2004-02-11 16:39:01 51°15.584 2°37.502 7.281817 3.521071 34.441119 2.893076
2004-02-11 16:40:01 51°15.588 2°37.492 7.287002 3.521598 34.445166 2.859366
2004-02-11 16:41:01 51°15.598 2°37.486 7.293165 3.522441 34.447605 3.129042
2004-02-11 16:42:01 51°15.608 2°37.484 7.298398 3.5236 34.455161 2.960494
2004-02-11 16:43:01 51°15.618 2°37.486 7.296002 3.523495 34.453175 3.162751
2004-02-11 16:44:01 51°15.635 2°37.481 7.301528 3.524127 34.459207 2.960494
2004-02-11 16:45:01 51°15.63 2°37.344 7.326073 3.525075 34.460267 3.263879
2004-02-11 16:46:01 51°15.466 2°37.293 7.332036 3.527182 34.464676 2.859366
2004-02-11 16:47:01 51°15.262 2°37.212 7.34445 3.529921 34.48183 3.027913
2004-02-11 16:48:01 51°15.058 2°37.126 7.347578 3.530975 34.48319 3.129042
2004-02-11 16:49:01 51°14.877 2°37.112 7.346747 3.530869 34.484567 3.331298
2004-02-11 16:50:01 51°14.79 2°37.077 7.343815 3.530553 34.482814 3.432426
2004-02-11 16:51:01 51°14.752 2°37.041 7.343962 3.529921 34.475949 3.365007
2004-02-11 16:52:01 51°14.741 2°37.034 7.346894 3.530975 34.486551 3.466136
2004-02-11 16:53:01 51°14.735 2°37.027 7.345428 3.530658 34.483959 3.162751
2004-02-11 16:54:01 51°14.732 2°37.025 7.348458 3.531396 34.490288 3.432426
2004-02-11 16:55:01 51°14.734 2°37.029 7.349777 3.530869 34.482046 3.432426
2004-02-11 16:56:01 51°14.741 2°37.028 7.353491 3.53108 34.483494 3.466136
2004-02-11 16:57:01 51°14.749 2°37.032 7.352513 3.531291 34.484102 3.466136
2004-02-11 16:58:01 51°14.758 2°37.04 7.355592 3.532239 34.493559 3.735811
2004-02-11 16:59:01 51°14.765 2°37.052 7.353882 3.531712 34.485318 3.499845
2004-02-11 17:00:01 51°14.772 2°37.066 7.354224 3.531607 34.486694 3.634683
2004-02-11 17:01:01 51°14.779 2°37.083 7.355641 3.531712 34.486998 3.702101
2004-02-11 17:02:01 51°14.786 2°37.101 7.354272 3.532028 34.48875 3.76952
2004-02-11 17:03:01 51°14.793 2°37.119 7.355738 3.532028 34.48959 3.668392
2004-02-11 17:04:01 51°14.8 2°37.138 7.358768 3.531817 34.483942 3.297589
2004-02-11 17:05:01 51°14.805 2°37.157 7.358279 3.532239 34.490198 3.499845
2004-02-11 17:06:01 51°14.81 2°37.173 7.355836 3.532239 34.489358 3.398717
2004-02-11 17:07:01 51°14.818 2°37.185 7.355738 3.532133 34.487374 3.398717
2004-02-11 17:08:01 51°14.825 2°37.193 7.360429 3.532344 34.489662 3.365007
2004-02-11 17:09:01 51°14.832 2°37.199 7.364044 3.532555 34.49027 3.297589
2004-02-11 17:10:01 51°14.838 2°37.203 7.357644 3.532766 34.493397 3.297589
2004-02-11 17:11:01 51°14.841 2°37.206 7.361797 3.53266 34.489733 3.634683
2004-02-11 17:12:01 51°14.819 2°37.19 7.363702 3.533187 34.493773 3.263879
2004-02-11 17:13:01 51°14.722 2°37.367 7.370395 3.533398 34.488501 3.533554
2004-02-11 17:14:01 51°14.665 2°37.726 7.349972 3.531923 34.486766 3.567264
2004-02-11 17:15:01 51°14.623 2°38.105 7.347822 3.530658 34.482278 3.263879
2004-02-11 17:16:01 51°14.577 2°38.483 7.352758 3.531185 34.484638 3.19646
2004-02-11 17:17:01 51°14.529 2°38.859 7.372838 3.533292 34.494916 3.19646
2004-02-11 17:18:01 51°14.48 2°39.234 7.394815 3.535189 34.507943 3.263879
2004-02-11 17:19:01 51°14.431 2°39.606 7.38412 3.538455 34.521546 2.589691
2004-02-11 17:20:01 51°14.4 2°39.98 7.248593 3.527287 34.47843 2.926785
2004-02-11 17:21:01 51°14.387 2°40.361 7.178909 3.509589 34.405299 2.825657
2004-02-11 17:22:01 51°14.38 2°40.742 7.146024 3.503268 34.377658 2.893076
2004-02-11 17:23:01 51°14.396 2°41.126 7.137788 3.50095 34.370069 2.960494
2004-02-11 17:24:01 51°14.413 2°41.512 7.13411 3.500739 34.375357 2.791947
2004-02-11 17:25:01 51°14.424 2°41.898 7.14269 3.501372 34.38057 2.690819
2004-02-11 17:26:01 51°14.436 2°42.281 7.132394 3.497263 34.334884 2.690819
2004-02-11 17:27:01 51°14.458 2°42.665 7.120184 3.492733 34.294706 2.488563
2004-02-11 17:28:01 51°14.493 2°43.051 7.115476 3.48894 34.257521 2.555982
2004-02-11 17:29:01 51°14.526 2°43.435 7.123274 3.486833 34.238729 2.6234
2004-02-11 17:30:01 51°14.559 2°43.82 7.126314 3.486411 34.23077 2.421144
2004-02-11 17:31:01 51°14.591 2°44.205 7.12705 3.486306 34.225421 2.522272
2004-02-11 17:32:01 51°14.624 2°44.591 7.126314 3.485463 34.212867 2.522272
2004-02-11 17:33:01 51°14.651 2°44.979 7.12396 3.483883 34.198146 2.724529
2004-02-11 17:34:01 51°14.617 2°45.352 7.126069 3.484199 34.197398 2.6234
2004-02-11 17:35:01 51°14.591 2°45.725 7.129207 3.483988 34.199295 2.522272
2004-02-11 17:36:01 51°14.571 2°46.104 7.121655 3.483883 34.199824 2.6234
2004-02-11 17:37:01 51°14.556 2°46.488 7.121361 3.484094 34.201284 2.555982
2004-02-11 17:38:01 51°14.554 2°46.869 7.120037 3.484515 34.20756 2.488563
2004-02-11 17:39:01 51°14.561 2°47.247 7.116996 3.483462 34.201101 2.65711
2004-02-11 17:40:01 51°14.574 2°47.626 7.120871 3.48462 34.212067 2.825657
2004-02-11 17:41:01 51°14.588 2°48.006 7.127736 3.486833 34.231168 2.859366
2004-02-11 17:42:01 51°14.591 2°48.389 7.125529 3.486411 34.22573 2.825657
2004-02-11 17:43:01 51°14.585 2°48.768 7.115525 3.485252 34.217285 2.791947
2004-02-11 17:44:01 51°14.58 2°49.147 7.112631 3.482724 34.200609 2.555982
2004-02-11 17:45:01 51°14.592 2°49.528 7.106892 3.48146 34.193528 2.522272
2004-02-11 17:46:01 51°14.615 2°49.908 7.086582 3.477562 34.161889 2.454853
2004-02-11 17:47:01 51°14.634 2°50.289 7.089771 3.474612 34.136397 2.286306
2004-02-11 17:48:01 51°14.654 2°50.668 7.086582 3.472611 34.115384 2.286306
2004-02-11 17:49:01 51°14.673 2°51.045 7.085306 3.471136 34.104311 2.353725
2004-02-11 17:50:01 51°14.693 2°51.423 7.074117 3.469766 34.093548 2.252597
2004-02-11 17:51:01 51°14.708 2°51.756 7.073037 3.469345 34.093136 2.252597
2004-02-11 17:52:01 51°14.721 2°52.003 7.074902 3.470715 34.109767 2.08405
2004-02-11 17:53:01 51°14.735 2°52.328 7.076227 3.471031 34.115734 1.881794
2004-02-11 17:54:01 51°14.75 2°52.7 7.077602 3.472189 34.117489 2.050341
2004-02-11 17:55:01 51°14.762 2°53.076 7.073577 3.46924 34.089472 2.151469
2004-02-11 17:56:01 51°14.718 2°53.439 7.056987 3.465447 34.0556 2.218888
2004-02-11 17:57:01 51°14.636 2°53.784 8.116664 0.074399 0.556966 -0.578993
2004-02-11 17:58:01 51°14.566 2°54.142 7.730529 0.04945 0.364404 -0.578993
2004-02-11 17:59:01 51°14.487 2°54.494 7.846424 0.046644 0.34292 -0.578993